createdAt,value
2024-01-06T00:00:08.878Z,1008.64
2024-01-06T00:01:08.888Z,1008.64
2024-01-06T00:02:08.792Z,1008.6
2024-01-06T00:03:08.816Z,1008.63
2024-01-06T00:04:08.888Z,1008.65
2024-01-06T00:05:08.817Z,1008.65
2024-01-06T00:06:08.859Z,1008.62
2024-01-06T00:07:08.784Z,1008.64
2024-01-06T00:08:08.771Z,1008.64
2024-01-06T00:09:08.838Z,1008.66
2024-01-06T00:10:08.775Z,1008.69
2024-01-06T00:11:08.770Z,1008.69
2024-01-06T00:12:08.805Z,1008.71
2024-01-06T00:13:08.772Z,1008.69
2024-01-06T00:14:08.774Z,1008.68
2024-01-06T00:15:08.816Z,1008.66
2024-01-06T00:16:08.769Z,1008.69
2024-01-06T00:17:08.763Z,1008.72
2024-01-06T00:18:09.173Z,1008.73
2024-01-06T00:19:08.904Z,1008.74
2024-01-06T00:20:09.086Z,1008.74
2024-01-06T00:21:08.802Z,1008.74
2024-01-06T00:22:08.772Z,1008.71
2024-01-06T00:23:08.783Z,1008.69
2024-01-06T00:24:08.815Z,1008.73
2024-01-06T00:25:08.773Z,1008.65
2024-01-06T00:26:08.778Z,1008.64
2024-01-06T00:27:08.798Z,1008.64
2024-01-06T00:28:08.764Z,1008.69
2024-01-06T00:29:08.777Z,1008.66
2024-01-06T00:30:08.853Z,1008.7
2024-01-06T00:31:08.877Z,1008.76
2024-01-06T00:32:08.772Z,1008.7
2024-01-06T00:33:08.845Z,1008.71
2024-01-06T00:34:08.873Z,1008.76
2024-01-06T00:35:08.812Z,1008.72
2024-01-06T00:36:08.808Z,1008.72
2024-01-06T00:37:08.776Z,1008.76
2024-01-06T00:38:08.777Z,1008.7
2024-01-06T00:39:08.807Z,1008.72
2024-01-06T00:40:08.773Z,1008.68
2024-01-06T00:41:08.767Z,1008.68
2024-01-06T00:42:08.810Z,1008.68
2024-01-06T00:43:08.757Z,1008.66
2024-01-06T00:44:08.765Z,1008.66
2024-01-06T00:45:08.837Z,1008.66
2024-01-06T00:46:08.789Z,1008.73
2024-01-06T00:47:08.772Z,1008.71
2024-01-06T00:48:08.857Z,1008.76
2024-01-06T00:49:08.800Z,1008.78
2024-01-06T00:50:08.784Z,1008.75
2024-01-06T00:51:08.805Z,1008.73
2024-01-06T00:52:08.769Z,1008.78
2024-01-06T00:53:08.786Z,1008.79
2024-01-06T00:54:08.822Z,1008.79
2024-01-06T00:55:08.801Z,1008.79
2024-01-06T00:56:08.775Z,1008.83
2024-01-06T00:57:08.798Z,1008.82
2024-01-06T00:58:08.767Z,1008.83
2024-01-06T00:59:08.771Z,1008.84
2024-01-06T01:00:08.891Z,1008.82
2024-01-06T01:01:08.861Z,1008.82
2024-01-06T01:02:08.766Z,1008.78
2024-01-06T01:03:08.800Z,1008.81
2024-01-06T01:04:08.860Z,1008.82
2024-01-06T01:05:08.871Z,1008.83
2024-01-06T01:06:08.814Z,1008.85
2024-01-06T01:07:08.763Z,1008.86
2024-01-06T01:08:08.773Z,1008.89
2024-01-06T01:09:08.788Z,1008.85
2024-01-06T01:10:08.762Z,1008.91
2024-01-06T01:11:08.781Z,1008.91
2024-01-06T01:12:08.804Z,1008.94
2024-01-06T01:13:08.765Z,1008.86
2024-01-06T01:14:08.814Z,1008.89
2024-01-06T01:15:08.813Z,1008.93
2024-01-06T01:16:08.764Z,1008.92
2024-01-06T01:17:08.783Z,1008.89
2024-01-06T01:18:08.992Z,1008.91
2024-01-06T01:19:08.806Z,1008.92
2024-01-06T01:20:08.766Z,1008.89
2024-01-06T01:21:08.864Z,1008.91
2024-01-06T01:22:08.764Z,1008.96
2024-01-06T01:23:08.762Z,1008.95
2024-01-06T01:24:08.801Z,1008.93
2024-01-06T01:25:08.811Z,1008.92
2024-01-06T01:26:08.773Z,1008.89
2024-01-06T01:27:08.777Z,1008.93
2024-01-06T01:28:08.835Z,1008.92
2024-01-06T01:29:08.763Z,1008.93
2024-01-06T01:30:08.925Z,1008.87
2024-01-06T01:31:08.894Z,1008.92
2024-01-06T01:32:08.884Z,1008.86
2024-01-06T01:33:08.887Z,1008.85
2024-01-06T01:34:08.994Z,1008.87
2024-01-06T01:35:08.760Z,1008.91
2024-01-06T01:36:08.863Z,1008.88
2024-01-06T01:37:08.751Z,1008.81
2024-01-06T01:38:08.767Z,1008.85
2024-01-06T01:39:08.823Z,1008.84
2024-01-06T01:40:08.816Z,1008.76
2024-01-06T01:41:08.887Z,1008.75
2024-01-06T01:42:08.791Z,1008.76
2024-01-06T01:43:08.775Z,1008.7
2024-01-06T01:44:08.771Z,1008.72
2024-01-06T01:45:09.927Z,1008.7
2024-01-06T01:46:08.798Z,1008.7
2024-01-06T01:47:08.774Z,1008.7
2024-01-06T01:48:09.026Z,1008.68
2024-01-06T01:49:08.879Z,1008.68
2024-01-06T01:50:08.790Z,1008.63
2024-01-06T01:51:08.797Z,1008.66
2024-01-06T01:52:08.750Z,1008.63
2024-01-06T01:53:08.762Z,1008.61
2024-01-06T01:54:08.852Z,1008.65
2024-01-06T01:55:08.784Z,1008.62
2024-01-06T01:56:08.791Z,1008.62
2024-01-06T01:57:08.775Z,1008.62
2024-01-06T01:58:08.765Z,1008.61
2024-01-06T01:59:08.773Z,1008.6
2024-01-06T02:00:08.981Z,1008.59
2024-01-06T02:01:08.870Z,1008.63
2024-01-06T02:02:08.777Z,1008.62
2024-01-06T02:03:09.160Z,1008.69
2024-01-06T02:04:08.793Z,1008.7
2024-01-06T02:05:08.806Z,1008.73
2024-01-06T02:06:08.795Z,1008.71
2024-01-06T02:07:08.760Z,1008.77
2024-01-06T02:08:08.764Z,1008.76
2024-01-06T02:09:08.850Z,1008.76
2024-01-06T02:10:08.775Z,1008.78
2024-01-06T02:11:08.780Z,1008.78
2024-01-06T02:12:08.860Z,1008.78
2024-01-06T02:13:08.763Z,1008.76
2024-01-06T02:14:08.761Z,1008.74
2024-01-06T02:15:08.900Z,1008.7
2024-01-06T02:16:08.784Z,1008.74
2024-01-06T02:17:08.753Z,1008.72
2024-01-06T02:18:09.039Z,1008.71
2024-01-06T02:19:08.871Z,1008.72
2024-01-06T02:20:08.779Z,1008.69
2024-01-06T02:21:08.862Z,1008.75
2024-01-06T02:22:08.768Z,1008.76
2024-01-06T02:23:08.768Z,1008.75
2024-01-06T02:24:08.823Z,1008.76
2024-01-06T02:25:08.761Z,1008.73
2024-01-06T02:26:08.796Z,1008.74
2024-01-06T02:27:08.812Z,1008.73
2024-01-06T02:28:08.755Z,1008.73
2024-01-06T02:29:08.776Z,1008.72
2024-01-06T02:30:08.937Z,1008.73
2024-01-06T02:31:08.864Z,1008.68
2024-01-06T02:32:08.758Z,1008.68
2024-01-06T02:33:08.911Z,1008.7
2024-01-06T02:34:08.915Z,1008.73
2024-01-06T02:35:08.773Z,1008.75
2024-01-06T02:36:08.793Z,1008.76
2024-01-06T02:37:08.757Z,1008.76
2024-01-06T02:38:08.759Z,1008.77
2024-01-06T02:39:08.829Z,1008.71
2024-01-06T02:40:08.763Z,1008.71
2024-01-06T02:41:08.763Z,1008.74
2024-01-06T02:42:08.812Z,1008.7
2024-01-06T02:43:08.756Z,1008.72
2024-01-06T02:44:12.074Z,1008.69
2024-01-06T02:45:08.862Z,1008.71
2024-01-06T02:46:08.783Z,1008.71
2024-01-06T02:47:08.762Z,1008.68
2024-01-06T02:48:09.000Z,1008.7
2024-01-06T02:49:08.960Z,1008.66
2024-01-06T02:50:08.753Z,1008.66
2024-01-06T02:51:08.808Z,1008.71
2024-01-06T02:52:08.760Z,1008.71
2024-01-06T02:53:08.755Z,1008.75
2024-01-06T02:54:08.800Z,1008.72
2024-01-06T02:55:08.762Z,1008.76
2024-01-06T02:56:08.776Z,1008.76
2024-01-06T02:57:08.790Z,1008.74
2024-01-06T02:58:08.779Z,1008.76
2024-01-06T02:59:08.763Z,1008.77
2024-01-06T03:00:08.830Z,1008.74
2024-01-06T03:01:08.845Z,1008.78
2024-01-06T03:02:08.761Z,1008.8
2024-01-06T03:03:08.818Z,1008.8
2024-01-06T03:04:08.879Z,1008.85
2024-01-06T03:05:08.810Z,1008.84
2024-01-06T03:06:08.816Z,1008.83
2024-01-06T03:07:08.763Z,1008.84
2024-01-06T03:08:08.823Z,1008.83
2024-01-06T03:09:08.802Z,1008.85
2024-01-06T03:10:08.767Z,1008.83
2024-01-06T03:11:08.768Z,1008.83
2024-01-06T03:12:08.788Z,1008.86
2024-01-06T03:13:08.754Z,1008.84
2024-01-06T03:14:08.766Z,1008.83
2024-01-06T03:15:08.845Z,1008.8
2024-01-06T03:16:08.779Z,1008.81
2024-01-06T03:17:08.757Z,1008.81
2024-01-06T03:18:08.893Z,1008.79
2024-01-06T03:19:08.959Z,1008.77
2024-01-06T03:20:08.761Z,1008.79
2024-01-06T03:21:08.788Z,1008.84
2024-01-06T03:22:08.763Z,1008.79
2024-01-06T03:23:08.767Z,1008.81
2024-01-06T03:24:08.777Z,1008.78
2024-01-06T03:25:08.766Z,1008.83
2024-01-06T03:26:08.787Z,1008.87
2024-01-06T03:27:08.804Z,1008.85
2024-01-06T03:28:08.769Z,1008.87
2024-01-06T03:29:08.778Z,1008.82
2024-01-06T03:30:08.981Z,1008.88
2024-01-06T03:31:08.799Z,1008.84
2024-01-06T03:32:08.759Z,1008.85
2024-01-06T03:33:08.897Z,1008.88
2024-01-06T03:34:08.879Z,1008.89
2024-01-06T03:35:08.761Z,1008.87
2024-01-06T03:36:08.803Z,1008.87
2024-01-06T03:37:08.766Z,1008.89
2024-01-06T03:38:08.766Z,1008.93
2024-01-06T03:39:08.785Z,1008.92
2024-01-06T03:40:08.772Z,1008.86
2024-01-06T03:41:08.777Z,1008.86
2024-01-06T03:42:08.786Z,1008.85
2024-01-06T03:43:08.770Z,1008.84
2024-01-06T03:44:08.780Z,1008.82
2024-01-06T03:45:08.850Z,1008.79
2024-01-06T03:46:08.765Z,1008.86
2024-01-06T03:47:08.785Z,1008.81
2024-01-06T03:48:09.021Z,1008.84
2024-01-06T03:49:08.882Z,1008.86
2024-01-06T03:50:08.768Z,1008.85
2024-01-06T03:51:08.975Z,1008.88
2024-01-06T03:52:08.784Z,1008.89
2024-01-06T03:53:08.769Z,1008.86
2024-01-06T03:54:08.815Z,1008.87
2024-01-06T03:55:08.764Z,1008.87
2024-01-06T03:56:08.774Z,1008.85
2024-01-06T03:57:08.781Z,1008.84
2024-01-06T03:58:08.769Z,1008.91
2024-01-06T03:59:08.764Z,1008.93
2024-01-06T04:00:08.867Z,1008.96
2024-01-06T04:01:08.872Z,1008.95
2024-01-06T04:02:08.755Z,1008.98
2024-01-06T04:03:08.810Z,1008.98
2024-01-06T04:04:08.888Z,1009.02
2024-01-06T04:05:08.768Z,1008.98
2024-01-06T04:06:08.800Z,1008.99
2024-01-06T04:07:08.771Z,1009.01
2024-01-06T04:08:08.762Z,1009.01
2024-01-06T04:09:08.798Z,1009
2024-01-06T04:10:08.777Z,1009.01
2024-01-06T04:11:08.795Z,1009.01
2024-01-06T04:12:08.828Z,1008.97
2024-01-06T04:13:08.774Z,1008.98
2024-01-06T04:14:08.768Z,1008.97
2024-01-06T04:15:08.863Z,1008.97
2024-01-06T04:16:08.780Z,1008.97
2024-01-06T04:17:08.766Z,1008.96
2024-01-06T04:18:08.858Z,1008.96
2024-01-06T04:19:09.007Z,1009
2024-01-06T04:20:08.767Z,1008.98
2024-01-06T04:21:08.789Z,1008.99
2024-01-06T04:22:08.806Z,1009.03
2024-01-06T04:23:08.760Z,1009.02
2024-01-06T04:24:08.774Z,1009.07
2024-01-06T04:25:08.764Z,1009.04
2024-01-06T04:26:08.781Z,1009.08
2024-01-06T04:27:08.815Z,1009.09
2024-01-06T04:28:08.753Z,1009.07
2024-01-06T04:29:08.765Z,1009.07
2024-01-06T04:30:08.935Z,1009.07
2024-01-06T04:31:11.883Z,1009.1
2024-01-06T04:32:08.757Z,1009.07
2024-01-06T04:33:08.909Z,1009.06
2024-01-06T04:34:09.035Z,1009.1
2024-01-06T04:35:08.773Z,1009.13
2024-01-06T04:36:08.806Z,1009.11
2024-01-06T04:37:08.760Z,1009.16
2024-01-06T04:38:08.759Z,1009.11
2024-01-06T04:39:08.877Z,1009.13
2024-01-06T04:40:08.764Z,1009.13
2024-01-06T04:41:08.774Z,1009.13
2024-01-06T04:42:08.848Z,1009.16
2024-01-06T04:43:08.768Z,1009.19
2024-01-06T04:44:08.773Z,1009.16
2024-01-06T04:45:08.842Z,1009.2
2024-01-06T04:46:08.759Z,1009.21
2024-01-06T04:47:08.774Z,1009.19
2024-01-06T04:48:08.978Z,1009.19
2024-01-06T04:49:08.899Z,1009.16
2024-01-06T04:50:08.766Z,1009.12
2024-01-06T04:51:08.780Z,1009.13
2024-01-06T04:52:08.774Z,1009.13
2024-01-06T04:53:08.764Z,1009.15
2024-01-06T04:54:08.847Z,1009.2
2024-01-06T04:55:08.766Z,1009.2
2024-01-06T04:56:08.761Z,1009.22
2024-01-06T04:57:08.841Z,1009.21
2024-01-06T04:58:08.773Z,1009.21
2024-01-06T04:59:08.764Z,1009.21
2024-01-06T05:00:08.945Z,1009.19
2024-01-06T05:01:08.841Z,1009.12
2024-01-06T05:02:08.768Z,1009.12
2024-01-06T05:04:08.792Z,1009.13
2024-01-06T05:05:08.829Z,1009.11
2024-01-06T05:06:08.934Z,1009.09
2024-01-06T05:07:08.768Z,1009.09
2024-01-06T05:08:08.780Z,1009.08
2024-01-06T05:09:08.887Z,1009.09
2024-01-06T05:10:08.784Z,1009.12
2024-01-06T05:11:08.781Z,1009.12
2024-01-06T05:12:08.813Z,1009.1
2024-01-06T05:13:08.778Z,1009.11
2024-01-06T05:14:08.777Z,1009.12
2024-01-06T05:15:08.807Z,1009.16
2024-01-06T05:16:08.774Z,1009.18
2024-01-06T05:17:08.768Z,1009.19
2024-01-06T05:18:08.944Z,1009.16
2024-01-06T05:19:08.910Z,1009.13
2024-01-06T05:20:08.806Z,1009.18
2024-01-06T05:21:08.767Z,1009.19
2024-01-06T05:22:08.769Z,1009.22
2024-01-06T05:23:08.769Z,1009.21
2024-01-06T05:24:08.790Z,1009.29
2024-01-06T05:25:08.789Z,1009.28
2024-01-06T05:26:08.780Z,1009.33
2024-01-06T05:27:11.724Z,1009.28
2024-01-06T05:28:08.773Z,1009.3
2024-01-06T05:29:08.775Z,1009.28
2024-01-06T05:30:08.823Z,1009.29
2024-01-06T05:31:08.874Z,1009.28
2024-01-06T05:32:08.787Z,1009.3
2024-01-06T05:33:11.748Z,1009.32
2024-01-06T05:34:08.883Z,1009.38
2024-01-06T05:35:08.956Z,1009.34
2024-01-06T05:36:08.777Z,1009.34
2024-01-06T05:37:08.769Z,1009.38
2024-01-06T05:38:08.784Z,1009.4
2024-01-06T05:39:08.772Z,1009.46
2024-01-06T05:40:08.796Z,1009.42
2024-01-06T05:41:08.785Z,1009.45
2024-01-06T05:42:08.781Z,1009.46
2024-01-06T05:43:08.780Z,1009.48
2024-01-06T05:44:08.792Z,1009.49
2024-01-06T05:45:08.785Z,1009.55
2024-01-06T05:46:08.796Z,1009.56
2024-01-06T05:47:08.790Z,1009.57
2024-01-06T05:48:08.920Z,1009.58
2024-01-06T05:49:08.837Z,1009.57
2024-01-06T05:50:08.786Z,1009.62
2024-01-06T05:51:08.777Z,1009.58
2024-01-06T05:52:08.779Z,1009.59
2024-01-06T05:53:08.768Z,1009.58
2024-01-06T05:54:08.777Z,1009.58
2024-01-06T05:55:08.788Z,1009.59
2024-01-06T05:56:08.790Z,1009.57
2024-01-06T05:57:08.769Z,1009.64
2024-01-06T05:58:08.766Z,1009.68
2024-01-06T05:59:08.778Z,1009.65
2024-01-06T06:00:08.788Z,1009.71
2024-01-06T06:01:08.860Z,1009.71
2024-01-06T06:02:08.784Z,1009.74
2024-01-06T06:03:08.883Z,1009.77
2024-01-06T06:04:08.876Z,1009.8
2024-01-06T06:05:08.779Z,1009.8
2024-01-06T06:06:08.833Z,1009.8
2024-01-06T06:07:08.857Z,1009.76
2024-01-06T06:08:08.765Z,1009.78
2024-01-06T06:09:08.781Z,1009.79
2024-01-06T06:10:08.990Z,1009.81
2024-01-06T06:11:08.792Z,1009.81
2024-01-06T06:12:08.779Z,1009.88
2024-01-06T06:13:08.773Z,1009.86
2024-01-06T06:14:08.789Z,1009.89
2024-01-06T06:15:08.828Z,1009.91
2024-01-06T06:16:08.779Z,1009.91
2024-01-06T06:17:08.773Z,1009.95
2024-01-06T06:18:08.877Z,1009.98
2024-01-06T06:19:08.849Z,1009.93
2024-01-06T06:20:08.817Z,1009.99
2024-01-06T06:21:08.896Z,1010.02
2024-01-06T06:22:08.799Z,1010.02
2024-01-06T06:23:08.776Z,1010.03
2024-01-06T06:24:08.787Z,1009.99
2024-01-06T06:25:08.781Z,1010.02
2024-01-06T06:26:08.768Z,1010.02
2024-01-06T06:27:08.788Z,1010.02
2024-01-06T06:28:08.769Z,1010.02
2024-01-06T06:29:08.787Z,1010
2024-01-06T06:30:08.787Z,1010.02
2024-01-06T06:31:08.900Z,1010.02
2024-01-06T06:32:08.771Z,1010.09
2024-01-06T06:33:08.872Z,1010.12
2024-01-06T06:34:09.461Z,1010.15
2024-01-06T06:35:08.796Z,1010.14
2024-01-06T06:36:08.762Z,1010.15
2024-01-06T06:37:08.766Z,1010.17
2024-01-06T06:38:08.767Z,1010.16
2024-01-06T06:39:08.767Z,1010.22
2024-01-06T06:40:08.785Z,1010.18
2024-01-06T06:41:08.763Z,1010.23
2024-01-06T06:42:08.769Z,1010.23
2024-01-06T06:43:08.763Z,1010.29
2024-01-06T06:44:08.771Z,1010.29
2024-01-06T06:45:08.785Z,1010.33
2024-01-06T06:46:08.758Z,1010.35
2024-01-06T06:47:08.762Z,1010.37
2024-01-06T06:48:08.840Z,1010.35
2024-01-06T06:49:08.813Z,1010.36
2024-01-06T06:50:08.837Z,1010.39
2024-01-06T06:51:08.765Z,1010.42
2024-01-06T06:52:08.785Z,1010.48
2024-01-06T06:53:08.770Z,1010.47
2024-01-06T06:54:08.764Z,1010.46
2024-01-06T06:55:08.786Z,1010.45
2024-01-06T06:56:08.767Z,1010.47
2024-01-06T06:57:08.777Z,1010.55
2024-01-06T06:58:08.768Z,1010.51
2024-01-06T06:59:08.773Z,1010.51
2024-01-06T07:00:08.861Z,1010.51
2024-01-06T07:01:09.020Z,1010.55
2024-01-06T07:02:08.778Z,1010.51
2024-01-06T07:03:08.804Z,1010.59
2024-01-06T07:04:08.790Z,1010.58
2024-01-06T07:05:08.799Z,1010.58
2024-01-06T07:06:08.770Z,1010.6
2024-01-06T07:07:08.767Z,1010.6
2024-01-06T07:08:08.771Z,1010.58
2024-01-06T07:09:08.770Z,1010.63
2024-01-06T07:10:08.773Z,1010.62
2024-01-06T07:11:08.766Z,1010.62
2024-01-06T07:12:08.770Z,1010.66
2024-01-06T07:13:08.765Z,1010.64
2024-01-06T07:14:08.790Z,1010.64
2024-01-06T07:15:08.768Z,1010.66
2024-01-06T07:16:17.394Z,1010.65
2024-01-06T07:17:08.763Z,1010.62
2024-01-06T07:18:08.849Z,1010.63
2024-01-06T07:19:08.869Z,1010.62
2024-01-06T07:20:08.770Z,1010.63
2024-01-06T07:21:08.780Z,1010.65
2024-01-06T07:22:08.794Z,1010.62
2024-01-06T07:23:08.762Z,1010.64
2024-01-06T07:24:08.762Z,1010.63
2024-01-06T07:25:08.838Z,1010.65
2024-01-06T07:26:08.764Z,1010.63
2024-01-06T07:27:08.769Z,1010.68
2024-01-06T07:28:08.833Z,1010.67
2024-01-06T07:29:08.785Z,1010.69
2024-01-06T07:30:08.805Z,1010.66
2024-01-06T07:31:08.803Z,1010.71
2024-01-06T07:32:08.768Z,1010.66
2024-01-06T07:33:08.797Z,1010.67
2024-01-06T07:34:08.851Z,1010.65
2024-01-06T07:35:08.872Z,1010.65
2024-01-06T07:36:08.771Z,1010.63
2024-01-06T07:37:08.778Z,1010.66
2024-01-06T07:38:08.781Z,1010.66
2024-01-06T07:39:08.768Z,1010.66
2024-01-06T07:40:08.779Z,1010.68
2024-01-06T07:41:08.761Z,1010.66
2024-01-06T07:42:08.764Z,1010.71
2024-01-06T07:43:08.760Z,1010.7
2024-01-06T07:44:08.770Z,1010.71
2024-01-06T07:45:08.780Z,1010.69
2024-01-06T07:46:08.763Z,1010.72
2024-01-06T07:47:08.771Z,1010.74
2024-01-06T07:48:08.838Z,1010.74
2024-01-06T07:49:08.892Z,1010.74
2024-01-06T07:50:08.762Z,1010.8
2024-01-06T07:51:08.770Z,1010.83
2024-01-06T07:52:08.764Z,1010.86
2024-01-06T07:53:08.767Z,1010.84
2024-01-06T07:54:08.764Z,1010.86
2024-01-06T07:55:08.773Z,1010.88
2024-01-06T07:56:08.767Z,1010.89
2024-01-06T07:57:08.758Z,1010.91
2024-01-06T07:58:08.754Z,1010.92
2024-01-06T07:59:08.767Z,1010.96
2024-01-06T08:00:08.780Z,1010.96
2024-01-06T08:01:08.915Z,1010.97
2024-01-06T08:02:08.774Z,1011.05
2024-01-06T08:03:08.789Z,1011.04
2024-01-06T08:04:08.858Z,1011.07
2024-01-06T08:05:08.777Z,1011.08
2024-01-06T08:06:08.877Z,1011.1
2024-01-06T08:07:08.810Z,1011.11
2024-01-06T08:08:08.762Z,1011.1
2024-01-06T08:09:08.758Z,1011.1
2024-01-06T08:10:08.814Z,1011.11
2024-01-06T08:11:08.769Z,1011.11
2024-01-06T08:12:08.760Z,1011.2
2024-01-06T08:13:08.772Z,1011.19
2024-01-06T08:14:08.777Z,1011.22
2024-01-06T08:15:08.791Z,1011.24
2024-01-06T08:16:08.782Z,1011.27
2024-01-06T08:17:08.767Z,1011.26
2024-01-06T08:18:09.002Z,1011.27
2024-01-06T08:19:08.828Z,1011.28
2024-01-06T08:20:08.789Z,1011.25
2024-01-06T08:21:08.768Z,1011.3
2024-01-06T08:22:08.774Z,1011.29
2024-01-06T08:23:08.774Z,1011.31
2024-01-06T08:24:08.753Z,1011.35
2024-01-06T08:25:08.802Z,1011.38
2024-01-06T08:26:12.589Z,1011.38
2024-01-06T08:27:08.770Z,1011.42
2024-01-06T08:28:08.763Z,1011.37
2024-01-06T08:29:08.768Z,1011.36
2024-01-06T08:30:08.979Z,1011.39
2024-01-06T08:31:08.871Z,1011.37
2024-01-06T08:32:08.799Z,1011.39
2024-01-06T08:33:08.848Z,1011.39
2024-01-06T08:34:08.961Z,1011.43
2024-01-06T08:35:08.786Z,1011.43
2024-01-06T08:36:08.760Z,1011.42
2024-01-06T08:37:08.776Z,1011.47
2024-01-06T08:38:08.779Z,1011.42
2024-01-06T08:39:08.765Z,1011.45
2024-01-06T08:40:08.773Z,1011.44
2024-01-06T08:41:08.774Z,1011.49
2024-01-06T08:42:08.776Z,1011.43
2024-01-06T08:43:08.771Z,1011.41
2024-01-06T08:44:08.776Z,1011.42
2024-01-06T08:45:08.774Z,1011.43
2024-01-06T08:46:08.768Z,1011.44
2024-01-06T08:47:08.766Z,1011.47
2024-01-06T08:48:08.853Z,1011.5
2024-01-06T08:49:08.830Z,1011.49
2024-01-06T08:50:08.813Z,1011.48
2024-01-06T08:51:08.788Z,1011.52
2024-01-06T08:52:08.785Z,1011.49
2024-01-06T08:53:08.765Z,1011.53
2024-01-06T08:54:08.762Z,1011.55
2024-01-06T08:55:08.773Z,1011.55
2024-01-06T08:56:08.773Z,1011.56
2024-01-06T08:57:08.768Z,1011.57
2024-01-06T08:58:08.769Z,1011.54
2024-01-06T08:59:08.773Z,1011.55
2024-01-06T09:00:08.777Z,1011.58
2024-01-06T09:01:08.878Z,1011.62
2024-01-06T09:02:08.805Z,1011.63
2024-01-06T09:03:08.863Z,1011.66
2024-01-06T09:04:08.954Z,1011.67
2024-01-06T09:05:08.826Z,1011.7
2024-01-06T09:06:08.773Z,1011.67
2024-01-06T09:07:08.757Z,1011.65
2024-01-06T09:08:08.757Z,1011.65
2024-01-06T09:09:08.776Z,1011.66
2024-01-06T09:10:08.787Z,1011.65
2024-01-06T09:11:08.761Z,1011.65
2024-01-06T09:12:08.790Z,1011.64
2024-01-06T09:13:08.765Z,1011.74
2024-01-06T09:14:08.774Z,1011.7
2024-01-06T09:15:08.783Z,1011.73
2024-01-06T09:16:08.773Z,1011.76
2024-01-06T09:17:08.759Z,1011.76
2024-01-06T09:18:08.987Z,1011.78
2024-01-06T09:19:09.028Z,1011.85
2024-01-06T09:20:08.763Z,1011.89
2024-01-06T09:21:08.762Z,1011.89
2024-01-06T09:22:08.778Z,1011.91
2024-01-06T09:23:08.776Z,1011.92
2024-01-06T09:24:08.771Z,1011.89
2024-01-06T09:25:08.774Z,1011.92
2024-01-06T09:26:08.785Z,1011.91
2024-01-06T09:27:08.771Z,1011.89
2024-01-06T09:28:08.771Z,1011.86
2024-01-06T09:29:09.145Z,1011.86
2024-01-06T09:30:08.809Z,1011.88
2024-01-06T09:31:08.843Z,1011.87
2024-01-06T09:32:08.768Z,1011.82
2024-01-06T09:33:08.868Z,1011.83
2024-01-06T09:34:08.872Z,1011.82
2024-01-06T09:35:08.836Z,1011.83
2024-01-06T09:36:08.771Z,1011.84
2024-01-06T09:37:08.781Z,1011.8
2024-01-06T09:38:08.765Z,1011.86
2024-01-06T09:39:08.775Z,1011.84
2024-01-06T09:40:08.790Z,1011.85
2024-01-06T09:41:08.780Z,1011.84
2024-01-06T09:42:08.773Z,1011.82
2024-01-06T09:43:08.780Z,1011.87
2024-01-06T09:44:08.782Z,1011.87
2024-01-06T09:45:08.784Z,1011.88
2024-01-06T09:46:08.770Z,1011.86
2024-01-06T09:47:08.776Z,1011.89
2024-01-06T09:48:08.861Z,1011.89
2024-01-06T09:49:08.873Z,1011.85
2024-01-06T09:50:08.778Z,1011.88
2024-01-06T09:51:08.768Z,1011.89
2024-01-06T09:52:08.834Z,1011.86
2024-01-06T09:53:08.754Z,1011.86
2024-01-06T09:54:08.882Z,1011.84
2024-01-06T09:55:08.863Z,1011.85
2024-01-06T09:56:08.775Z,1011.8
2024-01-06T09:57:08.769Z,1011.82
2024-01-06T09:58:08.895Z,1011.83
2024-01-06T09:59:08.780Z,1011.82
2024-01-06T10:00:08.921Z,1011.76
2024-01-06T10:01:08.857Z,1011.8
2024-01-06T10:02:08.765Z,1011.82
2024-01-06T10:03:08.770Z,1011.83
2024-01-06T10:04:08.862Z,1011.85
2024-01-06T10:05:08.923Z,1011.84
2024-01-06T10:06:08.878Z,1011.81
2024-01-06T10:07:08.830Z,1011.82
2024-01-06T10:08:08.763Z,1011.81
2024-01-06T10:09:08.765Z,1011.82
2024-01-06T10:10:08.864Z,1011.78
2024-01-06T10:11:08.765Z,1011.78
2024-01-06T10:12:08.761Z,1011.78
2024-01-06T10:13:08.893Z,1011.82
2024-01-06T10:14:08.784Z,1011.81
2024-01-06T10:15:08.785Z,1011.85
2024-01-06T10:16:08.847Z,1011.85
2024-01-06T10:17:08.757Z,1011.85
2024-01-06T10:18:08.903Z,1011.82
2024-01-06T10:19:08.927Z,1011.8
2024-01-06T10:20:08.805Z,1011.82
2024-01-06T10:21:08.759Z,1011.85
2024-01-06T10:22:08.762Z,1011.84
2024-01-06T10:23:09.152Z,1011.86
2024-01-06T10:24:08.770Z,1011.86
2024-01-06T10:25:08.793Z,1011.9
2024-01-06T10:26:08.792Z,1011.91
2024-01-06T10:27:08.764Z,1011.9
2024-01-06T10:28:09.222Z,1011.85
2024-01-06T10:29:08.775Z,1011.89
2024-01-06T10:30:08.845Z,1011.91
2024-01-06T10:31:08.863Z,1011.9
2024-01-06T10:32:08.772Z,1011.88
2024-01-06T10:33:08.854Z,1011.91
2024-01-06T10:34:08.904Z,1011.91
2024-01-06T10:35:08.798Z,1011.92
2024-01-06T10:36:08.836Z,1011.97
2024-01-06T10:37:08.809Z,1011.99
2024-01-06T10:38:08.788Z,1011.97
2024-01-06T10:39:08.775Z,1011.98
2024-01-06T10:40:08.894Z,1011.95
2024-01-06T10:41:09.193Z,1011.96
2024-01-06T10:42:08.769Z,1011.97
2024-01-06T10:43:08.776Z,1012
2024-01-06T10:44:08.773Z,1011.99
2024-01-06T10:45:08.784Z,1012
2024-01-06T10:46:08.974Z,1011.94
2024-01-06T10:47:08.768Z,1011.98
2024-01-06T10:48:08.883Z,1011.99
2024-01-06T10:49:08.854Z,1011.98
2024-01-06T10:50:08.856Z,1011.98
2024-01-06T10:51:09.102Z,1011.97
2024-01-06T10:52:08.807Z,1011.97
2024-01-06T10:53:08.762Z,1011.91
2024-01-06T10:54:08.769Z,1011.94
2024-01-06T10:55:08.772Z,1011.94
2024-01-06T10:56:08.806Z,1011.92
2024-01-06T10:57:08.761Z,1011.98
2024-01-06T10:58:08.756Z,1011.91
2024-01-06T10:59:08.770Z,1011.91
2024-01-06T11:00:08.769Z,1011.92
2024-01-06T11:01:08.840Z,1011.91
2024-01-06T11:02:08.782Z,1011.91
2024-01-06T11:03:08.782Z,1011.92
2024-01-06T11:04:08.878Z,1011.94
2024-01-06T11:05:08.841Z,1011.91
2024-01-06T11:06:08.831Z,1011.88
2024-01-06T11:07:08.802Z,1011.9
2024-01-06T11:08:08.754Z,1011.88
2024-01-06T11:09:08.757Z,1011.87
2024-01-06T11:10:08.930Z,1011.89
2024-01-06T11:11:08.754Z,1011.89
2024-01-06T11:12:08.773Z,1011.89
2024-01-06T11:13:08.784Z,1011.86
2024-01-06T11:14:08.756Z,1011.86
2024-01-06T11:15:08.764Z,1011.85
2024-01-06T11:16:08.866Z,1011.85
2024-01-06T11:17:08.809Z,1011.88
2024-01-06T11:18:08.833Z,1011.87
2024-01-06T11:19:08.887Z,1011.89
2024-01-06T11:20:08.852Z,1011.87
2024-01-06T11:21:08.773Z,1011.86
2024-01-06T11:22:08.753Z,1011.87
2024-01-06T11:23:08.790Z,1011.88
2024-01-06T11:24:08.902Z,1011.87
2024-01-06T11:25:09.250Z,1011.94
2024-01-06T11:26:08.772Z,1011.91
2024-01-06T11:27:08.755Z,1011.91
2024-01-06T11:28:08.797Z,1011.88
2024-01-06T11:29:08.773Z,1011.89
2024-01-06T11:30:09.183Z,1011.94
2024-01-06T11:31:08.871Z,1011.95
2024-01-06T11:32:08.755Z,1011.89
2024-01-06T11:33:08.893Z,1011.89
2024-01-06T11:34:08.837Z,1011.92
2024-01-06T11:35:08.761Z,1011.92
2024-01-06T11:36:08.763Z,1011.89
2024-01-06T11:37:08.816Z,1011.9
2024-01-06T11:38:08.764Z,1011.9
2024-01-06T11:39:08.770Z,1011.9
2024-01-06T11:40:08.768Z,1011.85
2024-01-06T11:41:08.770Z,1011.87
2024-01-06T11:42:11.089Z,1011.86
2024-01-06T11:43:08.781Z,1011.88
2024-01-06T11:44:08.761Z,1011.88
2024-01-06T11:45:08.764Z,1011.89
2024-01-06T11:46:08.861Z,1011.9
2024-01-06T11:47:08.759Z,1011.86
2024-01-06T11:48:09.093Z,1011.86
2024-01-06T11:49:08.872Z,1011.85
2024-01-06T11:50:08.750Z,1011.82
2024-01-06T11:51:08.751Z,1011.82
2024-01-06T11:52:08.766Z,1011.81
2024-01-06T11:53:08.760Z,1011.79
2024-01-06T11:54:08.762Z,1011.85
2024-01-06T11:55:08.786Z,1011.88
2024-01-06T11:56:08.761Z,1011.88
2024-01-06T11:57:08.772Z,1011.88
2024-01-06T11:58:08.867Z,1011.84
2024-01-06T11:59:08.771Z,1011.89
2024-01-06T12:00:08.774Z,1011.92
2024-01-06T12:01:08.860Z,1011.88
2024-01-06T12:02:08.767Z,1011.9
2024-01-06T12:03:08.766Z,1011.92
2024-01-06T12:04:08.798Z,1011.87
2024-01-06T12:05:08.769Z,1011.94
2024-01-06T12:06:08.968Z,1011.86
2024-01-06T12:07:08.857Z,1011.91
2024-01-06T12:08:09.459Z,1011.91